createdAt,value
2018-09-14T00:02:04.123Z,7.00
2018-09-14T00:04:32.087Z,6.83
2018-09-14T00:07:00.011Z,8.07
2018-09-14T00:09:27.865Z,8.67
2018-09-14T00:11:55.771Z,8.00
2018-09-14T00:14:23.624Z,7.97
2018-09-14T00:16:51.510Z,8.30
2018-09-14T00:19:19.407Z,7.87
2018-09-14T00:21:47.374Z,7.97
2018-09-14T00:24:15.253Z,7.73
2018-09-14T00:26:43.132Z,7.70
2018-09-14T00:29:11.016Z,7.97
2018-09-14T00:31:38.958Z,7.87
2018-09-14T00:34:07.260Z,8.20
2018-09-14T00:36:35.117Z,7.90
2018-09-14T00:39:03.106Z,8.30
2018-09-14T00:41:30.948Z,8.50
2018-09-14T00:43:58.886Z,8.80
2018-09-14T00:46:26.866Z,7.87
2018-09-14T00:48:54.769Z,8.27
2018-09-14T00:51:22.777Z,7.30
2018-09-14T00:53:50.725Z,9.27
2018-09-14T00:56:18.608Z,7.50
2018-09-14T00:58:46.576Z,7.63
2018-09-14T01:01:14.521Z,7.60
2018-09-14T01:03:42.505Z,7.47
2018-09-14T01:06:10.369Z,7.13
2018-09-14T01:08:38.225Z,7.47
2018-09-14T01:11:06.101Z,6.90
2018-09-14T01:13:33.958Z,7.30
2018-09-14T01:16:01.973Z,7.03
2018-09-14T01:18:29.908Z,7.10
2018-09-14T01:20:57.878Z,6.30
2018-09-14T01:23:25.766Z,6.20
2018-09-14T01:25:53.694Z,6.00
2018-09-14T01:28:21.578Z,6.20
2018-09-14T01:30:49.558Z,7.20
2018-09-14T01:33:17.363Z,6.40
2018-09-14T01:35:50.823Z,6.60
2018-09-14T01:38:18.708Z,6.20
2018-09-14T01:40:46.545Z,6.27
2018-09-14T01:43:14.442Z,7.53
2018-09-14T01:45:42.300Z,6.50
2018-09-14T01:48:11.149Z,6.40
2018-09-14T01:50:39.014Z,6.53
2018-09-14T01:53:06.858Z,5.90
2018-09-14T01:55:34.701Z,6.50
2018-09-14T01:58:02.547Z,5.97
2018-09-14T02:00:30.393Z,5.07
2018-09-14T02:02:59.196Z,5.63
2018-09-14T02:05:26.996Z,6.17
2018-09-14T02:07:55.979Z,5.73
2018-09-14T02:10:24.807Z,5.37
2018-09-14T02:12:53.314Z,5.53
2018-09-14T02:15:22.209Z,6.10
2018-09-14T02:17:50.039Z,6.17
2018-09-14T02:20:19.113Z,5.50
2018-09-14T02:22:47.378Z,5.83
2018-09-14T02:25:15.198Z,5.20
2018-09-14T02:27:44.086Z,5.50
2018-09-14T02:30:11.918Z,6.20
2018-09-14T02:32:39.770Z,6.07
2018-09-14T02:35:08.605Z,6.60
2018-09-14T02:37:36.456Z,6.20
2018-09-14T02:40:04.263Z,6.10
2018-09-14T02:42:32.436Z,5.83
2018-09-14T02:45:00.331Z,5.30
2018-09-14T02:47:28.201Z,4.90
2018-09-14T02:49:56.075Z,4.90
2018-09-14T02:52:23.965Z,4.20
2018-09-14T02:54:51.870Z,4.20
2018-09-14T02:57:19.676Z,3.97
2018-09-14T02:59:47.499Z,4.37
2018-09-14T03:02:15.315Z,4.20
2018-09-14T03:04:44.261Z,4.30
2018-09-14T03:07:12.186Z,4.07
2018-09-14T03:09:41.082Z,3.63
2018-09-14T03:12:10.257Z,4.10
2018-09-14T03:14:39.140Z,3.40
2018-09-14T03:17:06.981Z,3.80
2018-09-14T03:19:34.846Z,3.83
2018-09-14T03:22:02.722Z,2.90
2018-09-14T03:24:30.552Z,3.77
2018-09-14T03:26:59.450Z,3.50
2018-09-14T03:29:28.321Z,3.17
2018-09-14T03:31:57.230Z,3.10
2018-09-14T03:34:26.155Z,3.07
2018-09-14T03:36:54.123Z,3.30
2018-09-14T03:39:22.031Z,3.33
2018-09-14T03:41:50.110Z,3.90
2018-09-14T03:44:18.013Z,3.57
2018-09-14T03:46:45.850Z,3.70
2018-09-14T03:49:15.776Z,4.00
2018-09-14T03:51:43.657Z,3.90
2018-09-14T03:54:11.500Z,4.00
2018-09-14T03:56:39.403Z,3.67
2018-09-14T03:59:07.226Z,4.03
2018-09-14T04:01:35.105Z,4.20
2018-09-14T04:04:02.961Z,4.10
2018-09-14T04:06:30.830Z,3.93
2018-09-14T04:08:58.733Z,3.70
2018-09-14T04:11:27.585Z,3.70
2018-09-14T04:13:55.470Z,3.50
2018-09-14T04:16:23.325Z,4.13
2018-09-14T04:18:56.696Z,3.53
2018-09-14T04:21:24.569Z,3.97
2018-09-14T04:23:52.530Z,4.40
2018-09-14T04:26:20.420Z,3.50
2018-09-14T04:28:48.281Z,3.47
2018-09-14T04:31:16.183Z,3.77
2018-09-14T04:33:44.067Z,4.20
2018-09-14T04:36:12.035Z,4.20
2018-09-14T04:38:39.895Z,3.80
2018-09-14T04:41:07.766Z,4.30
2018-09-14T04:43:35.630Z,4.70
2018-09-14T04:46:03.530Z,4.57
2018-09-14T04:48:31.491Z,4.07
2018-09-14T04:50:59.626Z,5.00
2018-09-14T04:53:27.722Z,4.83
2018-09-14T04:55:55.675Z,5.80
2018-09-14T04:58:23.525Z,5.13
2018-09-14T05:00:51.385Z,5.90
2018-09-14T05:03:19.273Z,5.83
2018-09-14T05:05:47.124Z,6.00
2018-09-14T05:08:14.993Z,5.67
2018-09-14T05:10:42.874Z,6.07
2018-09-14T05:13:10.762Z,8.33
2018-09-14T05:15:38.629Z,6.00
2018-09-14T05:18:07.107Z,5.50
2018-09-14T05:20:34.994Z,5.30
2018-09-14T05:23:02.863Z,5.57
2018-09-14T05:25:31.263Z,6.83
2018-09-14T05:27:59.108Z,6.13
2018-09-14T05:30:26.952Z,7.17
2018-09-14T05:32:55.228Z,6.80
2018-09-14T05:35:23.100Z,7.20
2018-09-14T05:37:50.944Z,7.33
2018-09-14T05:40:18.859Z,7.00
2018-09-14T05:42:46.829Z,7.07
2018-09-14T05:45:14.788Z,7.57
2018-09-14T05:47:42.649Z,7.17
2018-09-14T05:50:10.505Z,7.07
2018-09-14T05:52:38.354Z,6.10
2018-09-14T05:55:06.213Z,6.37
2018-09-14T05:57:34.021Z,6.57
2018-09-14T06:00:01.819Z,6.30
2018-09-14T06:02:29.666Z,7.03
2018-09-14T06:04:57.464Z,7.30
2018-09-14T06:07:25.372Z,6.50
2018-09-14T06:09:53.253Z,6.00
2018-09-14T06:12:21.120Z,6.70
2018-09-14T06:14:48.965Z,6.90
2018-09-14T06:17:16.825Z,6.10
2018-09-14T06:19:44.662Z,6.70
2018-09-14T06:22:12.508Z,6.47
2018-09-14T06:24:40.369Z,6.47
2018-09-14T06:27:08.202Z,5.33
2018-09-14T06:29:36.057Z,5.90
2018-09-14T06:32:04.003Z,5.93
2018-09-14T06:34:31.837Z,6.33
2018-09-14T06:36:59.743Z,6.50
2018-09-14T06:39:27.593Z,6.90
2018-09-14T06:41:55.475Z,6.47
2018-09-14T06:44:23.313Z,6.03
2018-09-14T06:46:51.136Z,6.00
2018-09-14T06:49:19.020Z,6.13
2018-09-14T06:51:46.893Z,5.73
2018-09-14T06:54:14.772Z,5.83
2018-09-14T06:56:42.620Z,6.50
2018-09-14T06:59:10.488Z,6.30
2018-09-14T07:01:38.601Z,6.17
2018-09-14T07:04:06.473Z,5.37
2018-09-14T07:06:34.348Z,5.97
2018-09-14T07:09:02.225Z,5.53
2018-09-14T07:11:30.205Z,4.83
2018-09-14T07:13:58.409Z,5.77
2018-09-14T07:16:26.316Z,5.50
2018-09-14T07:18:54.209Z,5.93
2018-09-14T07:21:22.057Z,6.00
2018-09-14T07:23:49.909Z,5.07
2018-09-14T07:26:17.796Z,5.20
2018-09-14T07:28:45.682Z,5.03
2018-09-14T07:31:13.534Z,5.40
2018-09-14T07:33:41.454Z,4.83
2018-09-14T07:36:09.349Z,6.40
2018-09-14T07:38:38.233Z,6.40
2018-09-14T07:41:06.306Z,5.80
2018-09-14T07:43:34.193Z,6.40
2018-09-14T07:46:02.047Z,6.90
2018-09-14T07:48:29.928Z,6.40
2018-09-14T07:50:57.812Z,5.30
2018-09-14T07:53:25.741Z,6.13
2018-09-14T07:55:53.596Z,6.40
2018-09-14T07:58:21.514Z,6.13
2018-09-14T08:00:49.846Z,6.47
2018-09-14T08:03:17.820Z,6.47
2018-09-14T08:05:45.675Z,6.23
2018-09-14T08:08:13.548Z,6.77
2018-09-14T08:10:41.463Z,5.63
2018-09-14T08:13:09.401Z,4.07
2018-09-14T08:15:37.285Z,3.80
2018-09-14T08:18:05.246Z,3.67
2018-09-14T08:20:33.316Z,2.97
2018-09-14T08:23:01.336Z,3.47
2018-09-14T08:26:32.574Z,3.53
2018-09-14T08:29:00.462Z,4.43
2018-09-14T08:31:28.346Z,4.03
2018-09-14T08:33:56.332Z,3.87
2018-09-14T08:36:24.198Z,4.10
2018-09-14T08:38:52.051Z,4.73
2018-09-14T08:41:19.942Z,4.60
2018-09-14T08:43:47.741Z,4.27
2018-09-14T08:46:15.626Z,4.07
2018-09-14T08:48:43.452Z,4.07
2018-09-14T08:51:11.289Z,4.33
2018-09-14T08:53:39.152Z,4.40
2018-09-14T08:56:07.007Z,4.43
2018-09-14T08:58:34.908Z,4.47
2018-09-14T09:01:02.837Z,3.67
2018-09-14T09:03:30.653Z,4.00
2018-09-14T09:05:58.478Z,4.00
2018-09-14T09:08:26.378Z,3.53
2018-09-14T09:10:54.168Z,4.03
2018-09-14T09:13:22.026Z,3.20
2018-09-14T09:15:49.898Z,3.20
2018-09-14T09:18:17.736Z,3.50
2018-09-14T09:20:45.587Z,3.50
2018-09-14T09:23:13.415Z,3.90
2018-09-14T09:25:41.281Z,3.90
2018-09-14T09:28:09.142Z,3.93
2018-09-14T09:30:37.019Z,4.30
2018-09-14T09:33:04.836Z,5.40
2018-09-14T09:35:32.701Z,5.97
2018-09-14T09:38:00.539Z,4.53
2018-09-14T09:40:28.389Z,4.00
2018-09-14T09:42:56.250Z,4.53
2018-09-14T09:45:24.068Z,5.20
2018-09-14T09:47:51.938Z,4.73
2018-09-14T09:50:19.781Z,3.93
2018-09-14T09:52:47.622Z,4.73
2018-09-14T09:55:15.486Z,4.80
2018-09-14T09:57:43.658Z,4.77
2018-09-14T10:00:17.020Z,4.53
2018-09-14T10:03:53.426Z,5.40
2018-09-14T10:06:24.739Z,5.10
2018-09-14T10:08:53.011Z,5.37
2018-09-14T10:11:20.854Z,5.30
2018-09-14T10:13:48.856Z,5.13
2018-09-14T10:16:16.722Z,4.80
2018-09-14T10:18:44.581Z,5.17
2018-09-14T10:21:12.559Z,5.63
2018-09-14T10:23:40.220Z,5.57
2018-09-14T10:26:08.044Z,5.00
2018-09-14T10:28:35.901Z,4.47
2018-09-14T10:31:03.749Z,5.33
2018-09-14T10:33:31.757Z,5.17
2018-09-14T10:35:59.601Z,4.53
2018-09-14T10:38:27.694Z,4.90
2018-09-14T10:40:55.583Z,5.00
2018-09-14T10:43:23.414Z,4.93
2018-09-14T10:45:51.278Z,5.07
2018-09-14T10:48:19.133Z,4.53
2018-09-14T10:50:46.947Z,4.90
2018-09-14T10:53:14.936Z,5.10
2018-09-14T10:55:42.797Z,5.33
2018-09-14T10:58:10.633Z,5.17
2018-09-14T11:00:38.533Z,5.37
2018-09-14T11:03:06.288Z,5.30
2018-09-14T11:05:34.157Z,5.10
2018-09-14T11:08:01.981Z,4.83
2018-09-14T11:10:29.780Z,5.17
2018-09-14T11:12:57.678Z,4.63
2018-09-14T11:15:25.517Z,4.97
2018-09-14T11:17:53.345Z,6.40
2018-09-14T11:20:21.204Z,5.03
2018-09-14T11:22:49.074Z,5.83
2018-09-14T11:25:17.057Z,5.60
2018-09-14T11:27:44.916Z,5.70
2018-09-14T11:30:12.727Z,5.97
2018-09-14T11:32:40.601Z,5.20
2018-09-14T11:35:08.404Z,5.60
2018-09-14T11:37:36.246Z,5.50
2018-09-14T11:40:04.061Z,6.10
2018-09-14T11:42:32.222Z,5.87
2018-09-14T11:45:00.222Z,5.17
2018-09-14T11:47:28.040Z,5.40
2018-09-14T11:49:55.988Z,4.83
2018-09-14T11:52:24.384Z,5.30
2018-09-14T11:54:52.310Z,5.20
2018-09-14T11:57:20.194Z,5.07
2018-09-14T11:59:48.272Z,5.20
2018-09-14T12:02:16.154Z,5.70
2018-09-14T12:04:43.977Z,5.00
2018-09-14T12:07:11.815Z,4.90
2018-09-14T12:09:39.650Z,5.40
2018-09-14T12:12:07.573Z,4.60
2018-09-14T12:14:35.442Z,4.50
2018-09-14T12:17:03.271Z,4.67
2018-09-14T12:19:31.150Z,4.43
2018-09-14T12:21:59.010Z,5.17
2018-09-14T12:24:26.816Z,4.50
2018-09-14T12:26:54.633Z,3.90
2018-09-14T12:31:31.129Z,3.90
2018-09-14T12:33:58.964Z,3.37
2018-09-14T12:36:26.789Z,3.23
2018-09-14T12:38:54.644Z,3.63
2018-09-14T12:41:22.506Z,3.90
2018-09-14T12:43:50.386Z,3.40
2018-09-14T12:46:18.246Z,3.43
2018-09-14T12:48:46.147Z,3.40
2018-09-14T12:51:13.928Z,3.10
2018-09-14T12:53:41.871Z,3.20
2018-09-14T12:56:09.850Z,3.27
2018-09-14T12:58:37.686Z,2.90
2018-09-14T13:01:05.704Z,2.60
2018-09-14T13:03:33.673Z,2.60
2018-09-14T13:06:01.490Z,2.75
2018-09-14T13:08:29.374Z,2.60
2018-09-14T13:10:57.258Z,2.80
2018-09-14T13:13:25.206Z,2.60
2018-09-14T13:15:53.094Z,2.35
2018-09-14T13:43:04.351Z,2.90
2018-09-14T13:47:59.292Z,3.00
2018-09-14T13:55:21.397Z,2.97
2018-09-14T13:57:49.187Z,2.40
2018-09-14T14:00:17.049Z,2.37
2018-09-14T14:02:44.920Z,2.40
2018-09-14T15:04:03.159Z,2.40
2018-09-14T15:06:30.982Z,2.33
2018-09-14T15:08:58.848Z,2.70
2018-09-14T15:11:26.772Z,3.10
2018-09-14T15:13:54.649Z,2.67
2018-09-14T15:16:22.514Z,3.00
2018-09-14T15:18:50.435Z,2.90
2018-09-14T15:21:18.292Z,2.40
2018-09-14T15:23:46.142Z,2.80
2018-09-14T15:26:13.960Z,3.60
2018-09-14T15:28:41.776Z,3.17
2018-09-14T15:31:09.671Z,3.17
2018-09-14T15:33:37.627Z,3.70
2018-09-14T15:36:05.501Z,3.13
2018-09-14T15:38:33.394Z,3.30
2018-09-14T15:41:01.218Z,3.63
2018-09-14T15:43:29.083Z,3.40
2018-09-14T15:45:56.997Z,3.40
2018-09-14T15:48:24.855Z,3.60
2018-09-14T15:50:52.746Z,3.27
2018-09-14T15:53:20.611Z,3.30
2018-09-14T15:55:48.461Z,3.37
2018-09-14T15:58:16.323Z,3.10
2018-09-14T16:00:44.214Z,3.83
2018-09-14T16:03:12.888Z,3.47
2018-09-14T16:05:40.710Z,3.50
2018-09-14T16:08:08.558Z,3.90
2018-09-14T16:10:36.379Z,3.80
2018-09-14T16:13:04.204Z,3.83
2018-09-14T16:15:32.042Z,3.47
2018-09-14T16:17:59.893Z,3.53
2018-09-14T16:20:27.696Z,3.10
2018-09-14T16:22:55.548Z,3.50
2018-09-14T16:25:23.367Z,3.20
2018-09-14T16:27:51.238Z,3.47
2018-09-14T16:30:19.090Z,3.50
2018-09-14T16:32:46.958Z,3.23
2018-09-14T16:35:14.799Z,3.50
2018-09-14T16:37:42.637Z,3.70
2018-09-14T16:40:10.566Z,4.33
2018-09-14T16:42:38.424Z,3.93
2018-09-14T16:45:06.253Z,4.00
2018-09-14T16:47:34.154Z,3.90
2018-09-14T16:50:01.965Z,4.00
2018-09-14T17:04:45.144Z,4.20
2018-09-14T17:07:13.013Z,5.10
2018-09-14T17:09:40.861Z,5.03
2018-09-14T17:12:08.713Z,5.67
2018-09-14T17:14:36.606Z,5.37
2018-09-14T17:17:04.474Z,5.37
2018-09-14T17:19:32.679Z,5.30
2018-09-14T17:22:00.480Z,5.67
2018-09-14T17:24:28.376Z,5.67
2018-09-14T17:26:56.195Z,7.00
2018-09-14T17:29:24.064Z,7.10
2018-09-14T17:31:51.908Z,6.87
2018-09-14T17:34:19.798Z,6.80
2018-09-14T17:36:47.675Z,7.13
2018-09-14T17:39:15.476Z,6.50
2018-09-14T17:41:43.351Z,7.40
2018-09-14T17:44:11.178Z,8.17
2018-09-14T17:46:39.075Z,8.10
2018-09-14T17:49:06.927Z,8.70
2018-09-14T17:51:34.868Z,7.93
2018-09-14T17:54:02.716Z,8.57
2018-09-14T17:56:30.605Z,8.20
2018-09-14T17:58:58.484Z,8.53
2018-09-14T18:01:26.296Z,8.43
2018-09-14T18:03:54.953Z,7.80
2018-09-14T18:06:22.868Z,7.50
2018-09-14T18:08:50.834Z,7.80
2018-09-14T18:11:18.707Z,6.90
2018-09-14T18:13:46.623Z,8.40
2018-09-14T18:16:14.578Z,7.40
2018-09-14T18:18:42.549Z,8.30
2018-09-14T18:21:10.525Z,7.93
2018-09-14T18:23:38.433Z,7.20
2018-09-14T18:26:06.429Z,7.50
2018-09-14T18:28:34.372Z,8.30
2018-09-14T18:31:02.231Z,7.30
2018-09-14T18:33:30.137Z,7.97
2018-09-14T18:35:58.032Z,8.50
2018-09-14T18:38:25.965Z,6.97
2018-09-14T18:40:54.023Z,8.00
2018-09-14T18:43:22.014Z,7.20
2018-09-14T18:45:50.157Z,7.33
2018-09-14T18:48:18.141Z,7.60
2018-09-14T18:50:46.201Z,7.73
2018-09-14T18:53:14.246Z,7.23
2018-09-14T18:55:42.228Z,7.30
2018-09-14T18:58:10.153Z,7.80
2018-09-14T19:00:38.363Z,7.63
2018-09-14T19:03:06.386Z,7.27
2018-09-14T19:05:34.325Z,7.77
2018-09-14T19:08:02.265Z,7.23
2018-09-14T19:10:30.205Z,8.43
2018-09-14T19:12:58.200Z,8.33
2018-09-14T19:15:26.137Z,7.80
2018-09-14T19:17:54.038Z,8.00
2018-09-14T19:20:22.045Z,8.13
2018-09-14T19:22:49.950Z,8.77
2018-09-14T19:25:17.933Z,8.53
2018-09-14T19:27:46.845Z,8.83
2018-09-14T19:30:14.777Z,8.93
2018-09-14T19:32:42.775Z,8.67
2018-09-14T19:35:10.704Z,8.60
2018-09-14T19:37:38.710Z,7.60
2018-09-14T19:40:06.654Z,8.60
2018-09-14T19:42:35.690Z,8.30
2018-09-14T19:45:03.655Z,8.47
2018-09-14T19:47:31.605Z,8.20
2018-09-14T19:49:59.534Z,7.50
2018-09-14T19:52:27.406Z,7.80
2018-09-14T19:54:55.264Z,8.20
2018-09-14T19:57:23.256Z,8.00
2018-09-14T19:59:51.472Z,7.80
2018-09-14T20:02:19.419Z,7.40
2018-09-14T20:04:47.354Z,7.87
2018-09-14T20:07:15.186Z,7.47
2018-09-14T20:09:43.127Z,7.87
2018-09-14T20:12:10.996Z,7.50
2018-09-14T20:14:38.894Z,7.00
2018-09-14T20:17:06.823Z,7.90
2018-09-14T20:19:34.725Z,6.90
2018-09-14T20:22:02.607Z,8.60
2018-09-14T20:24:30.502Z,7.80
2018-09-14T20:26:58.372Z,8.77
2018-09-14T20:29:26.282Z,9.77
2018-09-14T20:31:54.165Z,7.70
2018-09-14T20:34:22.056Z,8.90
2018-09-14T20:36:49.908Z,8.63
2018-09-14T20:39:17.772Z,8.23
2018-09-14T20:41:45.766Z,8.13
2018-09-14T20:44:13.603Z,7.70
2018-09-14T20:46:41.550Z,7.30
2018-09-14T20:49:09.465Z,7.63
2018-09-14T20:51:37.366Z,7.77
2018-09-14T20:54:05.298Z,7.60
2018-09-14T20:56:33.193Z,8.00
2018-09-14T20:59:01.043Z,8.00
2018-09-14T21:01:28.911Z,7.67
2018-09-14T21:03:56.757Z,8.30
2018-09-14T21:06:24.645Z,8.30
2018-09-14T21:08:52.485Z,8.40
2018-09-14T21:11:20.418Z,7.67
2018-09-14T21:13:48.317Z,8.33
2018-09-14T21:16:16.241Z,9.10
2018-09-14T21:18:44.149Z,7.80
2018-09-14T21:21:12.078Z,7.90
2018-09-14T21:23:39.984Z,8.07
2018-09-14T21:26:07.856Z,7.97
2018-09-14T21:28:35.688Z,7.57
2018-09-14T21:31:03.644Z,7.60
2018-09-14T21:33:31.549Z,7.17
2018-09-14T21:35:59.392Z,7.20
2018-09-14T21:38:27.256Z,6.90
2018-09-14T21:40:55.187Z,7.23
2018-09-14T21:43:23.141Z,7.17
2018-09-14T21:45:51.019Z,7.70
2018-09-14T21:48:18.944Z,7.30
2018-09-14T21:50:46.837Z,6.93
2018-09-14T21:53:15.673Z,6.93
2018-09-14T21:55:43.639Z,7.00
2018-09-14T21:58:12.465Z,7.63
2018-09-14T22:00:45.851Z,7.93
2018-09-14T22:03:13.729Z,6.90
2018-09-14T22:05:42.622Z,6.90
2018-09-14T22:08:10.499Z,7.80
2018-09-14T22:10:38.361Z,7.13
2018-09-14T22:15:55.310Z,7.87
2018-09-14T22:18:23.198Z,7.80
2018-09-14T22:20:51.117Z,8.37
2018-09-14T22:23:19.001Z,7.53
2018-09-14T22:25:46.852Z,7.50
2018-09-14T22:28:14.695Z,8.17
2018-09-14T22:30:42.659Z,7.57
2018-09-14T22:33:10.561Z,7.93
2018-09-14T22:35:38.489Z,9.47
2018-09-14T22:38:06.455Z,8.43
2018-09-14T22:40:34.339Z,8.20
2018-09-14T22:43:02.241Z,8.40
2018-09-14T22:45:30.253Z,8.13
2018-09-14T22:47:58.189Z,8.37
2018-09-14T22:50:26.031Z,9.47
2018-09-14T22:52:53.928Z,8.70
2018-09-14T22:55:21.805Z,9.13
2018-09-14T22:57:49.608Z,8.50
2018-09-14T23:00:23.062Z,8.60
2018-09-14T23:02:50.914Z,8.97
2018-09-14T23:05:18.801Z,7.60
2018-09-14T23:07:46.641Z,8.77
2018-09-14T23:10:14.521Z,8.27
2018-09-14T23:12:42.400Z,8.37
2018-09-14T23:15:10.211Z,8.03
2018-09-14T23:17:38.100Z,8.90
2018-09-14T23:20:06.062Z,8.90
2018-09-14T23:22:33.915Z,8.10
2018-09-14T23:25:01.890Z,8.60
2018-09-14T23:27:29.745Z,8.50
2018-09-14T23:29:57.620Z,8.00
2018-09-14T23:32:25.471Z,8.50
2018-09-14T23:34:53.395Z,8.50
2018-09-14T23:37:21.245Z,7.83
2018-09-14T23:39:49.160Z,8.20
2018-09-14T23:42:17.109Z,7.80
2018-09-14T23:44:44.999Z,8.20
2018-09-14T23:47:13.830Z,8.60
2018-09-14T23:49:41.730Z,7.97
2018-09-14T23:52:09.602Z,8.20
2018-09-14T23:54:37.444Z,8.27
2018-09-14T23:57:05.325Z,7.80
2018-09-14T23:59:33.173Z,8.40
